createdAt,value
2022-08-25T00:07:40.297Z,6.1
2022-08-25T00:17:40.298Z,5.6
2022-08-25T00:27:40.310Z,5.5
2022-08-25T00:37:40.307Z,4.9
2022-08-25T00:47:40.318Z,4.8
2022-08-25T00:57:40.312Z,4.1
2022-08-25T01:07:40.315Z,5.0
2022-08-25T01:17:40.320Z,4.4
2022-08-25T01:27:40.321Z,4.8
2022-08-25T01:37:40.325Z,4.5
2022-08-25T01:47:40.328Z,5.0
2022-08-25T01:57:40.337Z,4.6
2022-08-25T02:07:40.333Z,4.2
2022-08-25T02:17:40.349Z,4.6
2022-08-25T02:27:40.343Z,5.2
2022-08-25T02:37:40.348Z,4.8
2022-08-25T02:47:40.344Z,5.0
2022-08-25T02:57:40.354Z,5.1
2022-08-25T03:07:40.349Z,5.3
2022-08-25T03:17:40.353Z,5.5
2022-08-25T03:27:40.355Z,5.4
2022-08-25T03:37:40.356Z,6.4
2022-08-25T03:47:40.367Z,5.7
2022-08-25T03:57:40.393Z,5.8
2022-08-25T04:07:40.368Z,5.8
2022-08-25T04:17:40.381Z,6.0
2022-08-25T04:27:40.400Z,5.9
2022-08-25T04:37:40.381Z,6.4
2022-08-25T04:47:40.398Z,4.9
2022-08-25T04:57:40.386Z,5.0
2022-08-25T05:07:40.386Z,4.9
2022-08-25T05:17:40.396Z,5.5
2022-08-25T05:27:40.398Z,5.1
2022-08-25T05:37:40.405Z,5.2
2022-08-25T05:47:40.409Z,4.9
2022-08-25T05:57:40.415Z,5.6
2022-08-25T06:07:40.420Z,5.1
2022-08-25T06:17:40.420Z,5.5
2022-08-25T06:27:40.429Z,5.4
2022-08-25T06:37:40.437Z,5.4
2022-08-25T06:47:40.439Z,5.2
2022-08-25T06:57:40.449Z,4.5
2022-08-25T07:07:43.821Z,4.4
2022-08-25T07:17:40.467Z,4.9
2022-08-25T07:27:41.245Z,3.9
2022-08-25T07:37:48.810Z,3.3
2022-08-25T07:47:40.486Z,3.7
2022-08-25T07:57:40.497Z,3.5
2022-08-25T08:07:42.994Z,3.4
2022-08-25T08:17:40.504Z,3.6
2022-08-25T08:27:40.518Z,3.3
2022-08-25T08:37:40.531Z,2.9
2022-08-25T08:47:40.520Z,3.3
2022-08-25T08:57:40.454Z,3.0
2022-08-25T09:07:42.270Z,3.2
2022-08-25T09:17:40.445Z,3.5
2022-08-25T09:27:40.465Z,3.1
2022-08-25T09:37:40.454Z,3.5
2022-08-25T09:47:40.462Z,2.6
2022-08-25T09:57:40.463Z,3.1
2022-08-25T10:07:40.494Z,2.8
2022-08-25T10:17:40.478Z,2.7
2022-08-25T10:27:40.491Z,2.4
2022-08-25T10:37:40.483Z,2.5
2022-08-25T10:47:40.491Z,2.1
2022-08-25T10:57:40.497Z,2.0
2022-08-25T11:07:40.501Z,2.4
2022-08-25T11:17:40.500Z,1.9
2022-08-25T11:27:40.511Z,1.5
2022-08-25T11:37:40.518Z,1.4
2022-08-25T11:47:40.516Z,1.7
2022-08-25T11:57:40.526Z,2.3
2022-08-25T12:07:40.530Z,2.0
2022-08-25T12:17:40.534Z,2.1
2022-08-25T12:27:40.535Z,2.0
2022-08-25T12:37:40.550Z,1.9
2022-08-25T12:47:44.335Z,2.0
2022-08-25T12:57:40.785Z,1.9
2022-08-25T13:07:40.551Z,1.7
2022-08-25T13:17:40.556Z,2.2
2022-08-25T13:27:40.561Z,1.7
2022-08-25T13:37:40.583Z,1.8
2022-08-25T13:47:43.786Z,1.9
2022-08-25T13:57:40.589Z,1.7
2022-08-25T14:07:46.560Z,1.8
2022-08-25T14:17:40.885Z,1.8
2022-08-25T14:27:56.909Z,1.6
2022-08-25T14:37:40.598Z,1.7
2022-08-25T14:47:40.602Z,2.1
2022-08-25T14:57:40.605Z,1.6
2022-08-25T15:07:40.612Z,1.5
2022-08-25T15:17:40.626Z,1.6
2022-08-25T15:27:40.624Z,2.2
2022-08-25T15:37:40.628Z,1.7
2022-08-25T15:47:40.698Z,1.7
2022-08-25T15:57:40.635Z,1.6
2022-08-25T16:07:40.634Z,2.0
2022-08-25T16:17:43.173Z,2.0
2022-08-25T16:27:40.642Z,1.6
2022-08-25T16:37:40.646Z,1.8
2022-08-25T16:47:41.431Z,1.5
2022-08-25T16:57:40.649Z,1.8
2022-08-25T17:07:40.656Z,1.7
2022-08-25T17:17:40.657Z,1.8
2022-08-25T17:27:40.655Z,1.9
2022-08-25T17:37:40.656Z,1.9
2022-08-25T17:47:40.655Z,2.5
2022-08-25T17:57:40.660Z,2.4
2022-08-25T18:07:40.655Z,3.0
2022-08-25T18:17:40.657Z,3.0
2022-08-25T18:27:40.660Z,2.8
2022-08-25T18:37:40.656Z,2.8
2022-08-25T18:47:40.764Z,3.9
2022-08-25T18:57:41.757Z,3.6
2022-08-25T19:07:40.771Z,4.0
2022-08-25T19:17:40.762Z,3.8
2022-08-25T19:27:40.768Z,3.3
2022-08-25T19:37:40.773Z,4.2
2022-08-25T19:47:40.783Z,3.6
2022-08-25T19:57:42.701Z,4.6
2022-08-25T20:07:40.771Z,6.4
2022-08-25T20:17:41.707Z,7.4
2022-08-25T20:27:40.784Z,8.6
2022-08-25T20:37:40.791Z,13.1
2022-08-25T20:47:40.788Z,19.0
2022-08-25T20:57:40.790Z,25.4
2022-08-25T21:07:40.797Z,32.0
2022-08-25T21:17:40.794Z,34.8
2022-08-25T21:27:40.797Z,35.9
2022-08-25T21:37:40.799Z,39.1
2022-08-25T21:47:40.809Z,40.5
2022-08-25T21:57:40.803Z,42.9
2022-08-25T22:07:44.082Z,40.2
2022-08-25T22:17:40.808Z,41.8
2022-08-25T22:27:40.818Z,38.2
2022-08-25T22:47:41.249Z,32.5
2022-08-25T22:57:40.821Z,26.3
2022-08-25T23:07:40.852Z,19.7
2022-08-25T23:37:40.837Z,14.8
2022-08-25T23:47:40.836Z,13.3
